Terminal Aerodrome Forecast
Issued by NWS

Home | Current Version | Previous Version | Text Only | Print | Product List | Glossary On
Versions: 1 2 3 4 5 6 7 8 9 10 11 12 13 14 15 16 17 18 19
004
FTUS43 KGRB 230332 AAA
TAFMTW
TAF AMD
KMTW 230332Z 2304/2324 VRB03KT 6SM -SHRA SCT004 OVC035
      TEMPO 2304/2305 2SM TSRA BKN004CB
     FM230500 32005KT 4SM SHRA SCT007 OVC020
     FM230700 33005KT P6SM -SHRA OVC050
     FM231000 31007KT P6SM BKN090
     FM231400 28012G20KT P6SM SCT045=

USA.gov is the U.S. government's official web portal to all federal, state and local government web resources and services.